Time;durP1;ratioP1;P1;durP2;ratioP2;P2;SDS_P1;SDS_P2;PMS_P1;PMS_P2;Temp;Humidity;BMP_temperature;BMP_pressure;BME280_temperature;BME280_humidity;BME280_pressure;Samples;Min_cycle;Max_cycle;Signal;HPM_P1;HPM_P2
2022/02/23 00:00:32;;;;;;;37.55;7.20;;;5.70;99.90;;;;;;5050144;28;20095;-59
2022/02/23 00:02:57;;;;;;;22.73;4.55;;;5.70;99.90;;;;;;5069971;28;20103;-58
2022/02/23 00:05:23;;;;;;;21.60;5.35;;;5.80;99.90;;;;;;5060651;28;20056;-59
2022/02/23 00:07:48;;;;;;;24.08;5.18;;;5.90;99.90;;;;;;5051852;28;20104;-58
2022/02/23 00:10:14;;;;;;;27.95;6.75;;;5.90;99.90;;;;;;5066600;28;20033;-58
2022/02/23 00:12:40;;;;;;;28.13;4.95;;;5.90;99.90;;;;;;5062351;28;20036;-59
2022/02/23 00:15:06;;;;;;;21.98;4.95;;;6.00;99.90;;;;;;5046221;28;20482;-59
2022/02/23 00:17:31;;;;;;;23.30;4.43;;;6.00;99.90;;;;;;5054056;28;20056;-57
2022/02/23 00:19:57;;;;;;;24.52;7.45;;;6.00;99.90;;;;;;5065348;28;20397;-58
2022/02/23 00:22:23;;;;;;;22.20;5.47;;;6.00;99.90;;;;;;5051546;28;20486;-57
2022/02/23 00:24:49;;;;;;;26.83;6.53;;;5.90;99.90;;;;;;5063255;28;20024;-59
2022/02/23 00:27:15;;;;;;;20.50;4.25;;;5.90;99.90;;;;;;5065911;28;20037;-59
2022/02/23 00:29:41;;;;;;;25.58;3.72;;;5.90;99.90;;;;;;5060915;28;20032;-59
2022/02/23 00:32:07;;;;;;;19.17;3.42;;;5.80;99.90;;;;;;5045331;28;20071;-58
2022/02/23 00:34:33;;;;;;;30.88;9.27;;;5.70;99.90;;;;;;5043553;28;20574;-59
2022/02/23 00:36:58;;;;;;;34.70;8.50;;;5.60;99.90;;;;;;5049994;28;20080;-59
2022/02/23 00:39:24;;;;;;;31.48;5.80;;;5.50;99.90;;;;;;5035133;28;20060;-59
2022/02/23 00:41:51;;;;;;;23.63;3.55;;;5.50;99.90;;;;;;5033731;28;20025;-59
2022/02/23 00:44:17;;;;;;;18.38;3.28;;;5.40;99.90;;;;;;5038246;28;20034;-57
2022/02/23 00:46:43;;;;;;;25.65;3.20;;;5.30;99.90;;;;;;5045577;28;20025;-55
2022/02/23 00:49:09;;;;;;;28.40;4.68;;;5.30;99.90;;;;;;5038616;28;20029;-59
2022/02/23 00:51:35;;;;;;;16.70;3.75;;;5.30;99.90;;;;;;5035618;28;20041;-59
2022/02/23 00:54:01;;;;;;;23.98;4.90;;;5.20;99.90;;;;;;5039831;28;20059;-59
2022/02/23 00:56:26;;;;;;;24.27;5.65;;;5.20;99.90;;;;;;5032714;28;20029;-60
2022/02/23 00:58:52;;;;;;;26.15;6.00;;;5.20;99.90;;;;;;5045572;28;20123;-59
2022/02/23 01:01:18;;;;;;;45.00;12.95;;;5.10;99.90;;;;;;5050004;28;20025;-60
2022/02/23 01:03:44;;;;;;;34.90;9.68;;;5.10;99.90;;;;;;5043198;28;20029;-59
2022/02/23 01:06:09;;;;;;;22.15;3.17;;;5.10;99.90;;;;;;5032550;28;20029;-57
2022/02/23 01:08:35;;;;;;;30.85;5.57;;;5.00;99.90;;;;;;5042299;28;20510;-58
2022/02/23 01:11:00;;;;;;;25.20;5.35;;;5.00;99.90;;;;;;5062776;28;20029;-58
2022/02/23 01:13:26;;;;;;;29.48;4.00;;;4.90;99.90;;;;;;5050162;28;20115;-59
2022/02/23 01:15:52;;;;;;;30.42;4.60;;;4.90;99.90;;;;;;5054988;28;20051;-58
2022/02/23 01:18:17;;;;;;;19.48;3.13;;;4.90;99.90;;;;;;5041924;28;20029;-56
2022/02/23 01:20:43;;;;;;;27.95;4.70;;;4.90;99.90;;;;;;5060496;28;20093;-60
2022/02/23 01:23:09;;;;;;;25.70;6.05;;;4.80;99.90;;;;;;5049119;28;20399;-56
2022/02/23 01:25:35;;;;;;;30.63;6.78;;;4.80;99.90;;;;;;5040954;28;20479;-53
2022/02/23 01:28:04;;;;;;;22.23;4.85;;;4.80;99.90;;;;;;5043806;28;20127;-58
2022/02/23 01:30:30;;;;;;;21.10;3.55;;;4.70;99.90;;;;;;5052806;28;20060;-59
2022/02/23 01:32:55;;;;;;;35.35;5.88;;;4.80;99.90;;;;;;5046417;28;20075;-59
2022/02/23 01:35:21;;;;;;;28.27;6.82;;;4.80;99.90;;;;;;5046033;28;20086;-58
2022/02/23 01:37:47;;;;;;;26.40;3.92;;;4.80;99.90;;;;;;4995815;28;20104;-59
2022/02/23 01:40:13;;;;;;;24.42;4.50;;;4.80;99.90;;;;;;4999112;28;20027;-59
2022/02/23 01:42:39;;;;;;;29.77;6.03;;;4.80;99.90;;;;;;5002109;28;20459;-59
2022/02/23 01:45:06;;;;;;;25.70;3.95;;;4.80;99.90;;;;;;4995135;28;20027;-59
2022/02/23 01:47:31;;;;;;;18.38;4.43;;;4.90;99.90;;;;;;5000261;28;20113;-59
2022/02/23 01:49:57;;;;;;;27.98;4.25;;;4.80;99.90;;;;;;4996390;28;20116;-58
2022/02/23 01:52:25;;;;;;;30.02;3.35;;;4.80;99.90;;;;;;5006167;28;20053;-59
2022/02/23 01:54:54;;;;;;;18.77;3.90;;;4.70;99.90;;;;;;4994523;28;20034;-58
2022/02/23 01:57:21;;;;;;;22.48;3.05;;;4.70;99.90;;;;;;4999127;28;20033;-60
2022/02/23 01:59:46;;;;;;;25.23;4.30;;;4.60;99.90;;;;;;4996216;28;20392;-59
2022/02/23 02:02:12;;;;;;;22.52;5.07;;;4.60;99.90;;;;;;4998090;28;20042;-58
2022/02/23 02:04:37;;;;;;;19.65;5.28;;;4.60;99.90;;;;;;4999182;28;20028;-59
2022/02/23 02:07:04;;;;;;;21.30;3.75;;;4.50;99.90;;;;;;5003612;28;20026;-60
2022/02/23 02:09:29;;;;;;;24.77;3.60;;;4.40;99.90;;;;;;4997335;28;20042;-59
2022/02/23 02:11:55;;;;;;;21.02;3.55;;;4.40;99.90;;;;;;4996558;28;20030;-60
2022/02/23 02:14:21;;;;;;;36.38;4.70;;;4.40;99.90;;;;;;4993770;28;20072;-59
2022/02/23 02:16:47;;;;;;;20.08;3.90;;;4.40;99.90;;;;;;5004836;28;20485;-58
2022/02/23 02:19:12;;;;;;;19.90;3.22;;;4.30;99.90;;;;;;5006752;28;20037;-58
2022/02/23 02:21:53;;;;;;;22.63;3.45;;;4.30;99.90;;;;;;4990946;28;20021;-60
2022/02/23 02:24:21;;;;;;;22.50;3.83;;;4.20;99.90;;;;;;4993537;28;20037;-59
2022/02/23 02:26:46;;;;;;;31.05;6.10;;;4.20;99.90;;;;;;4999523;28;20027;-59
2022/02/23 02:29:12;;;;;;;23.42;3.90;;;4.10;99.90;;;;;;5007590;28;20108;-59
2022/02/23 02:31:37;;;;;;;20.27;4.07;;;4.10;99.90;;;;;;5003817;28;20038;-59
2022/02/23 02:34:03;;;;;;;20.98;3.63;;;4.00;99.90;;;;;;5000456;28;20041;-59
2022/02/23 02:36:28;;;;;;;19.30;3.42;;;3.90;99.90;;;;;;4991424;28;20104;-60
2022/02/23 02:38:54;;;;;;;23.90;4.53;;;3.90;99.90;;;;;;5003261;28;20038;-60
2022/02/23 02:41:19;;;;;;;27.85;3.67;;;3.90;99.90;;;;;;5005088;28;20411;-58
2022/02/23 02:43:45;;;;;;;31.52;4.90;;;3.80;99.90;;;;;;4997282;28;20077;-59
2022/02/23 02:46:10;;;;;;;17.10;4.03;;;3.80;99.90;;;;;;4991378;28;20037;-60
2022/02/23 02:48:36;;;;;;;22.25;4.85;;;3.70;99.90;;;;;;4994488;28;20026;-58
2022/02/23 02:51:02;;;;;;;20.60;3.88;;;3.70;99.90;;;;;;4997037;28;20046;-59
2022/02/23 02:53:27;;;;;;;24.42;4.60;;;3.60;99.90;;;;;;4994409;28;20026;-59
2022/02/23 02:55:53;;;;;;;27.27;4.53;;;3.50;99.90;;;;;;4990575;28;20448;-59
2022/02/23 02:58:18;;;;;;;26.75;4.85;;;3.40;99.90;;;;;;4997062;28;20038;-59
2022/02/23 03:00:44;;;;;;;25.40;5.30;;;3.40;99.90;;;;;;4999693;28;20040;-60
2022/02/23 03:03:09;;;;;;;31.65;4.90;;;3.30;99.90;;;;;;4983901;28;20088;-59
2022/02/23 03:05:35;;;;;;;29.52;4.82;;;3.20;99.90;;;;;;4997748;28;20029;-59
2022/02/23 03:08:01;;;;;;;19.83;5.07;;;3.20;99.90;;;;;;4993561;28;20030;-57
2022/02/23 03:10:26;;;;;;;23.00;4.47;;;3.10;99.90;;;;;;5000776;28;20549;-59
2022/02/23 03:12:52;;;;;;;19.23;4.50;;;3.10;99.90;;;;;;5003833;28;20069;-58
2022/02/23 03:15:17;;;;;;;41.50;5.20;;;3.00;99.90;;;;;;5010209;28;20030;-59
2022/02/23 03:17:43;;;;;;;29.80;4.15;;;3.00;99.90;;;;;;5004120;28;20029;-57
2022/02/23 03:20:10;;;;;;;25.23;4.88;;;3.00;99.90;;;;;;5000046;28;20049;-60
2022/02/23 03:22:37;;;;;;;18.77;3.72;;;3.00;99.90;;;;;;5001800;28;20033;-59
2022/02/23 03:25:04;;;;;;;31.17;5.32;;;2.90;99.90;;;;;;5003677;28;20034;-60
2022/02/23 03:27:30;;;;;;;39.58;4.35;;;2.90;99.90;;;;;;4998878;28;20538;-59
2022/02/23 03:29:56;;;;;;;30.88;5.05;;;2.90;99.90;;;;;;4995713;28;20164;-58
2022/02/23 03:32:21;;;;;;;31.88;5.00;;;2.80;99.90;;;;;;4995441;28;20117;-60
2022/02/23 03:34:47;;;;;;;20.67;5.00;;;2.80;99.90;;;;;;4998104;28;20026;-59
2022/02/23 03:37:13;;;;;;;27.77;5.38;;;2.80;99.90;;;;;;5001406;28;20033;-59
2022/02/23 03:39:39;;;;;;;23.13;4.80;;;2.70;99.90;;;;;;4998039;28;20087;-59
2022/02/23 03:42:06;;;;;;;23.77;5.65;;;2.70;99.90;;;;;;5002363;28;20034;-59
2022/02/23 03:44:31;;;;;;;24.33;3.05;;;2.70;99.90;;;;;;5002122;28;20034;-59
2022/02/23 03:46:57;;;;;;;20.83;3.28;;;2.70;99.90;;;;;;4997148;28;20522;-60
2022/02/23 03:49:22;;;;;;;25.80;3.83;;;2.60;99.90;;;;;;4998316;28;20061;-59
2022/02/23 03:51:48;;;;;;;19.92;3.70;;;2.60;99.90;;;;;;4993230;28;20031;-59
2022/02/23 03:54:14;;;;;;;19.52;4.85;;;2.60;99.90;;;;;;5002724;28;20026;-60
2022/02/23 03:56:40;;;;;;;16.83;3.53;;;2.60;99.90;;;;;;4998609;28;20040;-58
2022/02/23 03:59:15;;;;;;;21.10;3.60;;;2.60;99.90;;;;;;4997894;28;20031;-59
2022/02/23 04:01:45;;;;;;;17.35;3.67;;;2.60;99.90;;;;;;4975069;28;20396;-59
2022/02/23 04:04:11;;;;;;;24.73;4.70;;;2.50;99.90;;;;;;4998243;28;20041;-60
2022/02/23 04:06:37;;;;;;;23.33;3.63;;;2.50;99.90;;;;;;4995715;28;20026;-59
2022/02/23 04:09:06;;;;;;;25.40;4.53;;;2.50;99.90;;;;;;5007356;28;20060;-60
2022/02/23 04:11:33;;;;;;;22.48;4.82;;;2.50;99.90;;;;;;5005623;28;20045;-59
2022/02/23 04:13:59;;;;;;;18.38;3.28;;;2.40;99.90;;;;;;5007199;28;20022;-60
2022/02/23 04:16:24;;;;;;;16.58;3.47;;;2.50;99.90;;;;;;5002533;28;20030;-60
2022/02/23 04:18:50;;;;;;;27.25;4.57;;;2.50;99.90;;;;;;5002986;28;20025;-59
2022/02/23 04:21:16;;;;;;;29.52;3.85;;;2.50;99.90;;;;;;5002494;28;20133;-59
2022/02/23 04:23:41;;;;;;;15.55;3.55;;;2.40;99.90;;;;;;4995695;28;20104;-60
2022/02/23 04:26:08;;;;;;;26.45;5.20;;;2.50;99.90;;;;;;4995245;28;20025;-57
2022/02/23 04:28:34;;;;;;;19.92;3.22;;;2.40;99.90;;;;;;5008906;28;20536;-60
2022/02/23 04:31:01;;;;;;;25.30;3.92;;;2.40;99.90;;;;;;5004999;28;20033;-60
2022/02/23 04:33:26;;;;;;;25.88;3.38;;;2.40;99.90;;;;;;5000930;28;20439;-60
2022/02/23 04:35:52;;;;;;;27.98;3.58;;;2.40;99.90;;;;;;5002712;28;20026;-59
2022/02/23 04:38:18;;;;;;;13.63;3.58;;;2.30;99.90;;;;;;4998969;28;20030;-56
2022/02/23 04:40:43;;;;;;;21.58;3.40;;;2.30;99.90;;;;;;5008425;28;20867;-60
2022/02/23 04:43:14;;;;;;;11.65;4.35;;;2.30;99.90;;;;;;5009704;28;20037;-60
2022/02/23 04:45:40;;;;;;;22.38;3.95;;;2.30;99.90;;;;;;5008737;28;20640;-60
2022/02/23 04:48:06;;;;;;;25.05;3.70;;;2.30;99.90;;;;;;5004665;28;20105;-60
2022/02/23 04:50:32;;;;;;;30.73;4.05;;;2.30;99.90;;;;;;4999486;28;20638;-60
2022/02/23 04:52:58;;;;;;;26.05;5.95;;;2.30;99.90;;;;;;5003303;28;20053;-59
2022/02/23 04:55:23;;;;;;;26.30;4.70;;;2.30;99.90;;;;;;4999182;28;20023;-60
2022/02/23 04:57:49;;;;;;;31.02;4.25;;;2.30;99.90;;;;;;5008733;28;20067;-59
2022/02/23 05:00:15;;;;;;;26.60;4.78;;;2.30;99.90;;;;;;5007904;28;20045;-60
2022/02/23 05:02:41;;;;;;;30.40;5.95;;;2.30;99.90;;;;;;4983708;28;20121;-59
2022/02/23 05:05:07;;;;;;;14.93;3.72;;;2.30;99.90;;;;;;5004391;28;20173;-59
2022/02/23 05:07:33;;;;;;;20.08;4.45;;;2.30;99.90;;;;;;5005879;28;20084;-59
2022/02/23 05:09:59;;;;;;;36.67;5.13;;;2.20;99.90;;;;;;5006447;28;20030;-60
2022/02/23 05:12:25;;;;;;;21.38;4.70;;;2.20;99.90;;;;;;5009413;28;20113;-59
2022/02/23 05:14:52;;;;;;;18.90;4.70;;;2.20;99.90;;;;;;5000693;28;20084;-60
2022/02/23 05:17:18;;;;;;;19.88;3.78;;;2.20;99.90;;;;;;5010699;28;20029;-60
2022/02/23 05:19:44;;;;;;;15.85;4.63;;;2.10;99.90;;;;;;5000688;28;20034;-60
2022/02/23 05:22:10;;;;;;;32.42;4.93;;;2.10;99.90;;;;;;4996352;28;20041;-60
2022/02/23 05:24:36;;;;;;;28.95;5.13;;;2.00;99.90;;;;;;5000120;28;20022;-60
2022/02/23 05:27:02;;;;;;;25.25;5.03;;;2.10;99.90;;;;;;5004891;28;20022;-60
2022/02/23 05:29:27;;;;;;;35.55;5.57;;;2.10;99.90;;;;;;5000144;28;20065;-59
2022/02/23 05:31:53;;;;;;;27.13;4.63;;;2.00;99.90;;;;;;5000479;28;20046;-59
2022/02/23 05:34:20;;;;;;;24.13;4.75;;;2.00;99.90;;;;;;5003170;28;20022;-60
2022/02/23 05:36:46;;;;;;;32.75;6.82;;;2.00;99.90;;;;;;5002877;28;20080;-58
2022/02/23 05:39:12;;;;;;;22.73;5.20;;;1.90;99.90;;;;;;5003407;28;20022;-60
2022/02/23 05:41:37;;;;;;;29.23;4.47;;;1.90;99.90;;;;;;5007030;28;20042;-56
2022/02/23 05:44:03;;;;;;;31.15;5.35;;;1.90;99.90;;;;;;5007043;28;20049;-60
2022/02/23 05:46:29;;;;;;;22.13;4.65;;;1.90;99.90;;;;;;4995548;28;20054;-59
2022/02/23 05:48:54;;;;;;;29.33;5.05;;;1.90;99.90;;;;;;5005370;28;20054;-60
2022/02/23 05:51:28;;;;;;;29.13;5.93;;;1.90;99.90;;;;;;4998154;28;20038;-60
2022/02/23 05:53:54;;;;;;;38.90;6.03;;;1.90;99.90;;;;;;5004940;28;20052;-59
2022/02/23 05:56:19;;;;;;;25.73;4.90;;;1.80;99.90;;;;;;5002595;28;20792;-60
2022/02/23 05:58:45;;;;;;;26.77;6.85;;;1.80;99.90;;;;;;5003285;28;20120;-60
2022/02/23 06:01:11;;;;;;;30.80;6.47;;;1.80;99.90;;;;;;5003656;28;20030;-60
2022/02/23 06:03:37;;;;;;;33.95;7.78;;;1.80;99.90;;;;;;4980999;28;20050;-57
2022/02/23 06:06:02;;;;;;;41.90;8.43;;;1.70;99.90;;;;;;4984527;28;20030;-59
2022/02/23 06:08:28;;;;;;;33.33;8.93;;;1.80;99.90;;;;;;5005358;28;20037;-59
2022/02/23 06:10:54;;;;;;;29.77;9.23;;;1.70;99.90;;;;;;5005791;28;20037;-60
2022/02/23 06:13:20;;;;;;;37.97;10.05;;;1.70;99.90;;;;;;5003253;28;20484;-60
2022/02/23 06:15:45;;;;;;;33.22;9.07;;;1.70;99.90;;;;;;5005350;28;20033;-60
2022/02/23 06:18:11;;;;;;;38.15;8.70;;;1.70;99.90;;;;;;5005199;28;20036;-59
2022/02/23 06:20:37;;;;;;;38.17;9.82;;;1.70;99.90;;;;;;5005365;28;20038;-55
2022/02/23 06:23:03;;;;;;;37.80;8.75;;;1.70;99.90;;;;;;5016778;28;20487;-58
2022/02/23 06:25:29;;;;;;;29.73;9.73;;;1.70;99.90;;;;;;5003918;28;20504;-59
2022/02/23 06:27:54;;;;;;;33.10;8.55;;;1.70;99.90;;;;;;5003803;28;20089;-60
2022/02/23 06:30:20;;;;;;;30.13;9.05;;;1.70;99.90;;;;;;4987220;28;20129;-59
2022/02/23 06:32:45;;;;;;;39.33;8.98;;;1.70;99.90;;;;;;4999530;28;20096;-60
2022/02/23 06:35:11;;;;;;;42.60;10.77;;;1.70;99.90;;;;;;5000775;28;20030;-59
2022/02/23 06:37:37;;;;;;;50.17;11.30;;;1.70;99.90;;;;;;4998409;28;20104;-57
2022/02/23 06:40:03;;;;;;;39.47;9.23;;;1.70;99.90;;;;;;5002768;28;20034;-59
2022/02/23 06:42:29;;;;;;;45.55;8.98;;;1.70;99.90;;;;;;5003396;28;20035;-58
2022/02/23 06:44:56;;;;;;;30.95;8.75;;;1.80;99.90;;;;;;4999118;28;20041;-59
2022/02/23 06:47:22;;;;;;;31.30;8.13;;;1.80;99.90;;;;;;4995631;28;20023;-60
2022/02/23 06:49:49;;;;;;;35.05;8.45;;;1.80;99.90;;;;;;5003640;28;20100;-59
2022/02/23 06:52:16;;;;;;;31.27;8.25;;;1.90;99.90;;;;;;4999733;28;20041;-60
2022/02/23 06:54:42;;;;;;;27.27;7.65;;;1.90;99.90;;;;;;4996060;28;20125;-60
2022/02/23 06:57:08;;;;;;;35.78;7.35;;;2.00;99.90;;;;;;4998151;28;20510;-58
2022/02/23 06:59:34;;;;;;;27.15;8.65;;;2.00;99.90;;;;;;5004391;28;20109;-60
2022/02/23 07:01:59;;;;;;;36.80;8.23;;;2.10;99.90;;;;;;4999506;28;20176;-62
2022/02/23 07:04:25;;;;;;;26.10;8.25;;;2.10;99.90;;;;;;4987541;28;20049;-56
2022/02/23 07:06:51;;;;;;;34.80;8.10;;;2.20;99.90;;;;;;5001452;28;20029;-59
2022/02/23 07:09:16;;;;;;;37.60;9.43;;;2.20;99.90;;;;;;5002773;28;20029;-60
2022/02/23 07:11:43;;;;;;;35.40;8.80;;;2.20;99.90;;;;;;4996590;28;20519;-59
2022/02/23 07:14:09;;;;;;;40.63;9.38;;;2.30;99.90;;;;;;4995156;28;20030;-60
2022/02/23 07:16:35;;;;;;;35.05;9.13;;;2.40;99.90;;;;;;4996574;28;20113;-56
2022/02/23 07:19:01;;;;;;;31.70;8.13;;;2.50;99.90;;;;;;5003144;28;20108;-56
2022/02/23 07:21:27;;;;;;;29.80;8.57;;;2.50;99.90;;;;;;4996625;28;20225;-57
2022/02/23 07:23:52;;;;;;;30.20;7.63;;;2.60;99.90;;;;;;4998339;28;20504;-60
2022/02/23 07:26:18;;;;;;;30.25;7.53;;;2.70;99.90;;;;;;4996931;28;20022;-57
2022/02/23 07:28:44;;;;;;;32.42;7.22;;;2.80;99.90;;;;;;4999304;28;20026;-60
2022/02/23 07:31:15;;;;;;;28.42;7.68;;;2.80;99.90;;;;;;5004447;28;20029;-59
2022/02/23 07:33:41;;;;;;;29.25;6.45;;;2.90;99.90;;;;;;5003157;28;20053;-60
2022/02/23 07:36:08;;;;;;;25.92;6.60;;;3.00;99.90;;;;;;5006830;28;20034;-60
2022/02/23 07:38:36;;;;;;;28.50;6.50;;;3.10;99.90;;;;;;4991180;28;20390;-58
2022/02/23 07:41:02;;;;;;;31.83;7.28;;;3.20;99.90;;;;;;4992577;28;20069;-58
2022/02/23 07:43:28;;;;;;;23.65;7.07;;;3.30;99.90;;;;;;4998030;28;20030;-59
2022/02/23 07:45:54;;;;;;;17.35;5.03;;;3.40;99.90;;;;;;4996503;28;20025;-60
2022/02/23 07:48:22;;;;;;;29.90;6.47;;;3.40;99.90;;;;;;4996042;28;20030;-59
2022/02/23 07:50:48;;;;;;;27.58;6.90;;;3.50;99.90;;;;;;4998677;28;20034;-59
2022/02/23 07:53:14;;;;;;;24.17;5.95;;;3.60;99.90;;;;;;5002111;28;20052;-61
2022/02/23 07:55:41;;;;;;;27.27;5.63;;;3.60;99.90;;;;;;4997392;28;20112;-55
2022/02/23 07:58:06;;;;;;;22.10;5.53;;;3.80;99.90;;;;;;4994263;28;20126;-60
2022/02/23 08:00:32;;;;;;;35.30;6.32;;;3.80;99.90;;;;;;4995633;28;20125;-59
2022/02/23 08:02:58;;;;;;;29.23;6.72;;;3.90;99.90;;;;;;4983154;28;20081;-58
2022/02/23 08:05:24;;;;;;;31.77;10.00;;;3.90;99.90;;;;;;5007022;28;20056;-60
2022/02/23 08:07:50;;;;;;;26.77;7.28;;;4.00;99.90;;;;;;5011856;28;20062;-59
2022/02/23 08:10:16;;;;;;;31.20;5.60;;;4.10;99.90;;;;;;4994949;28;20049;-60
2022/02/23 08:12:41;;;;;;;25.83;5.03;;;4.20;99.90;;;;;;4997168;28;20484;-59
2022/02/23 08:20:41;;;;;;;13.93;3.75;;;4.30;99.90;;;;;;5003298;28;20049;-60
2022/02/23 08:23:07;;;;;;;25.08;4.65;;;4.40;99.90;;;;;;4994968;28;20214;-59
2022/02/23 08:25:33;;;;;;;31.13;5.82;;;4.50;99.90;;;;;;4995512;28;20034;-60
2022/02/23 08:27:59;;;;;;;16.02;4.68;;;4.50;99.90;;;;;;4993960;28;20042;-60
2022/02/23 08:30:24;;;;;;;20.42;5.70;;;4.50;99.90;;;;;;4993538;28;20034;-60
2022/02/23 08:32:50;;;;;;;26.10;5.45;;;4.60;99.90;;;;;;4998669;28;20105;-59
2022/02/23 08:35:16;;;;;;;14.82;4.68;;;4.60;99.90;;;;;;5002097;28;20484;-60
2022/02/23 08:37:42;;;;;;;24.95;6.35;;;4.70;99.90;;;;;;4996118;28;20037;-59
2022/02/23 08:40:08;;;;;;;21.42;4.78;;;4.70;99.90;;;;;;5002462;28;20038;-60
2022/02/23 08:42:34;;;;;;;19.90;4.80;;;4.80;99.90;;;;;;5005639;28;20543;-60
2022/02/23 08:45:00;;;;;;;22.67;4.25;;;4.90;99.90;;;;;;5000349;28;20042;-60
2022/02/23 08:47:26;;;;;;;16.80;4.45;;;5.00;99.90;;;;;;5002384;28;20101;-60
2022/02/23 08:49:52;;;;;;;15.10;4.22;;;5.00;99.90;;;;;;5002374;28;20037;-60
2022/02/23 08:52:18;;;;;;;19.73;4.20;;;5.10;99.90;;;;;;5012124;28;20022;-59
2022/02/23 08:54:43;;;;;;;14.80;4.40;;;5.20;99.90;;;;;;5002874;28;20022;-60
2022/02/23 08:57:09;;;;;;;20.33;5.55;;;5.20;99.90;;;;;;5008829;28;20440;-60
2022/02/23 08:59:35;;;;;;;20.02;4.90;;;5.30;99.90;;;;;;5005063;28;20036;-61
2022/02/23 09:02:01;;;;;;;20.15;4.57;;;5.30;99.90;;;;;;5008821;28;20044;-60
2022/02/23 09:04:28;;;;;;;15.10;4.00;;;5.40;99.90;;;;;;4989954;28;20045;-60
2022/02/23 09:06:54;;;;;;;20.08;4.95;;;5.50;99.90;;;;;;5004944;28;20038;-61
2022/02/23 09:09:21;;;;;;;15.00;4.07;;;5.60;99.90;;;;;;4996762;28;20510;-59
2022/02/23 09:11:47;;;;;;;19.88;4.47;;;5.60;99.90;;;;;;5012287;28;20018;-60
2022/02/23 09:14:14;;;;;;;23.80;4.50;;;5.70;99.90;;;;;;5002626;28;20034;-59
2022/02/23 09:16:40;;;;;;;18.48;4.90;;;5.70;99.90;;;;;;4998062;28;20025;-61
2022/02/23 09:19:06;;;;;;;17.75;4.40;;;5.80;99.90;;;;;;5007045;28;20038;-60
2022/02/23 09:21:32;;;;;;;22.55;5.40;;;5.80;99.90;;;;;;5009408;28;20107;-61
2022/02/23 09:23:59;;;;;;;19.25;5.25;;;6.00;99.90;;;;;;5006570;28;20037;-60
2022/02/23 09:26:25;;;;;;;22.02;4.63;;;6.00;99.90;;;;;;5007567;28;20022;-60
2022/02/23 09:28:50;;;;;;;26.55;4.68;;;6.20;99.90;;;;;;5008581;28;20514;-59
2022/02/23 09:31:17;;;;;;;16.88;4.32;;;6.30;99.90;;;;;;4993427;28;20065;-61
2022/02/23 09:33:44;;;;;;;19.27;5.30;;;6.60;99.90;;;;;;5002300;28;20026;-61
2022/02/23 09:36:10;;;;;;;33.17;14.30;;;7.10;99.90;;;;;;5008133;28;20033;-61
2022/02/23 09:38:36;;;;;;;42.20;16.27;;;7.60;99.90;;;;;;5002639;28;20041;-61
2022/02/23 09:41:09;;;;;;;22.52;5.13;;;8.20;99.90;;;;;;4994677;28;20030;-60
2022/02/23 09:43:35;;;;;;;30.17;4.70;;;8.80;99.90;;;;;;4997699;28;20635;-61
2022/02/23 09:46:03;;;;;;;21.00;6.85;;;9.30;99.90;;;;;;4998904;28;20042;-61
2022/02/23 09:48:30;;;;;;;9.13;4.00;;;9.70;99.90;;;;;;5002035;28;20018;-61
2022/02/23 09:50:58;;;;;;;18.13;4.38;;;10.10;99.90;;;;;;5004765;28;20040;-61
2022/02/23 09:53:23;;;;;;;15.35;5.40;;;10.40;99.90;;;;;;4999985;28;20038;-62
2022/02/23 09:55:52;;;;;;;15.27;4.93;;;10.40;99.90;;;;;;4998385;28;20387;-61
2022/02/23 09:58:18;;;;;;;18.77;4.55;;;10.40;99.90;;;;;;5001957;28;20026;-61
2022/02/23 10:00:45;;;;;;;18.88;4.68;;;10.50;99.90;;;;;;4997078;28;20407;-61
2022/02/23 10:03:11;;;;;;;20.42;5.03;;;10.60;99.90;;;;;;4986090;28;20685;-58
2022/02/23 10:05:43;;;;;;;17.35;3.65;;;11.00;99.90;;;;;;5008975;28;20033;-59
2022/02/23 10:08:10;;;;;;;16.88;4.22;;;11.20;99.90;;;;;;4997823;28;20112;-61
2022/02/23 10:10:41;;;;;;;13.40;3.92;;;11.20;99.90;;;;;;4997761;28;20117;-62
2022/02/23 10:13:08;;;;;;;9.43;2.95;;;11.00;99.90;;;;;;5003221;28;20022;-58
2022/02/23 10:15:42;;;;;;;16.70;4.00;;;11.20;99.90;;;;;;5002239;28;20093;-59
2022/02/23 10:18:11;;;;;;;;;;;11.40;99.90;;;;;;5000228;28;20026;-59
2022/02/23 10:20:39;;;;;;;24.65;3.42;;;11.10;99.90;;;;;;5001835;28;19967;-62
2022/02/23 10:23:18;;;;;;;13.85;3.78;;;11.00;99.90;;;;;;5003136;28;20030;-60
2022/02/23 10:25:51;;;;;;;22.88;4.43;;;10.90;99.90;;;;;;4996576;28;20518;-58
2022/02/23 10:28:22;;;;;;;14.75;5.72;;;10.80;99.90;;;;;;4990688;28;20030;-60
2022/02/23 10:30:52;;;;;;;12.00;3.17;;;10.60;99.90;;;;;;5001366;28;20036;-60
2022/02/23 10:33:44;;;;;;;18.48;3.03;;;10.40;99.90;;;;;;5004394;28;20030;-60
2022/02/23 10:36:16;;;;;;;10.40;3.08;;;10.40;99.90;;;;;;5004736;28;20057;-59
2022/02/23 10:38:46;;;;;;;17.20;4.43;;;10.30;99.90;;;;;;5000477;28;20030;-60
2022/02/23 10:41:32;;;;;;;15.50;4.95;;;10.30;99.90;;;;;;5002980;28;20042;-60
2022/02/23 10:43:59;;;;;;;10.93;2.42;;;10.30;99.90;;;;;;4997534;28;20432;-60
2022/02/23 10:46:25;;;;;;;15.77;3.05;;;10.30;99.90;;;;;;5004970;28;20026;-60
2022/02/23 10:48:59;;;;;;;13.10;3.42;;;10.20;99.90;;;;;;5006712;28;20530;-60
2022/02/23 10:51:30;;;;;;;14.65;5.50;;;10.20;99.90;;;;;;5005394;28;20037;-60
2022/02/23 10:54:09;;;;;;;19.73;5.93;;;10.10;99.90;;;;;;5002270;28;20176;-59
2022/02/23 10:56:36;;;;;;;14.93;3.65;;;10.10;99.90;;;;;;5005242;28;20029;-59
2022/02/23 10:59:15;;;;;;;14.43;3.28;;;10.10;99.90;;;;;;5004394;28;20030;-59
2022/02/23 11:01:43;;;;;;;9.43;2.88;;;10.00;99.90;;;;;;5008047;28;20034;-56
2022/02/23 11:04:09;;;;;;;9.38;2.25;;;10.00;99.90;;;;;;4984583;28;20041;-58
2022/02/23 11:06:36;;;;;;;17.05;3.67;;;10.00;99.90;;;;;;4993613;28;20037;-60
2022/02/23 11:09:03;;;;;;;9.30;2.20;;;10.10;99.90;;;;;;5001967;28;20030;-59
2022/02/23 11:11:29;;;;;;;21.85;3.78;;;10.20;99.90;;;;;;5005163;28;20026;-58
2022/02/23 11:13:56;;;;;;;9.38;2.17;;;10.30;99.90;;;;;;5006005;28;20503;-60
2022/02/23 11:16:23;;;;;;;10.40;2.88;;;10.20;99.90;;;;;;5006367;28;20036;-60
2022/02/23 11:18:49;;;;;;;17.10;2.85;;;10.20;99.90;;;;;;5000540;28;20133;-61
2022/02/23 11:21:19;;;;;;;10.75;2.47;;;10.20;99.90;;;;;;4993829;28;20038;-61
2022/02/23 11:23:52;;;;;;;13.35;2.13;;;10.30;99.90;;;;;;5004249;28;20295;-61
2022/02/23 11:26:20;;;;;;;6.07;2.15;;;10.30;99.90;;;;;;5005036;28;20014;-60
2022/02/23 11:29:08;;;;;;;15.65;2.20;;;10.30;99.90;;;;;;5001111;28;20041;-60
2022/02/23 11:31:36;;;;;;;11.07;2.17;;;10.30;99.90;;;;;;5005061;28;20038;-60
2022/02/23 11:34:03;;;;;;;13.75;2.03;;;10.30;99.90;;;;;;5000120;28;20026;-61
2022/02/23 11:36:42;;;;;;;13.63;2.50;;;10.30;99.90;;;;;;4997036;28;20113;-61
2022/02/23 11:39:12;;;;;;;14.45;3.00;;;10.20;99.90;;;;;;5005965;28;20104;-60
2022/02/23 11:41:39;;;;;;;12.07;2.58;;;10.30;99.90;;;;;;5000720;28;20027;-60
2022/02/23 11:44:08;;;;;;;10.43;2.45;;;10.40;99.90;;;;;;5004768;28;20480;-60
2022/02/23 11:46:34;;;;;;;8.88;2.40;;;10.40;99.90;;;;;;5000439;28;20033;-61
2022/02/23 11:49:30;;;;;;;9.40;2.15;;;10.40;99.90;;;;;;4994455;28;20034;-60
2022/02/23 11:52:04;;;;;;;12.23;3.13;;;10.40;99.90;;;;;;4990582;28;20038;-61
2022/02/23 11:58:00;;;;;;;9.50;2.15;;;10.50;99.90;;;;;;5007989;28;20041;-61
2022/02/23 12:03:12;;;;;;;9.90;2.33;;;10.50;99.90;;;;;;4998131;28;20895;-61
2022/02/23 12:05:39;;;;;;;11.57;1.88;;;10.40;99.90;;;;;;4973906;28;20050;-61
2022/02/23 12:08:07;;;;;;;5.32;1.58;;;10.50;99.90;;;;;;5000177;28;20030;-60
2022/02/23 12:10:33;;;;;;;16.80;3.55;;;10.50;99.90;;;;;;5009080;28;20026;-60
2022/02/23 12:13:00;;;;;;;22.23;9.10;;;10.50;99.90;;;;;;5004784;28;20029;-61
2022/02/23 12:15:40;;;;;;;13.07;4.60;;;10.50;99.90;;;;;;4992535;28;20096;-61
2022/02/23 12:18:17;;;;;;;12.02;5.20;;;10.50;99.90;;;;;;4995258;28;20030;-59
2022/02/23 12:20:48;;;;;;;19.98;4.43;;;10.40;99.90;;;;;;5000507;28;20037;-60
2022/02/23 12:23:19;;;;;;;17.50;6.72;;;10.30;99.90;;;;;;4994008;28;20042;-60
2022/02/23 12:25:47;;;;;;;20.13;7.13;;;10.20;99.90;;;;;;5000913;28;20077;-60
2022/02/23 12:28:36;;;;;;;11.15;4.10;;;10.30;99.90;;;;;;4994546;28;20053;-61
2022/02/23 12:31:07;;;;;;;15.48;5.82;;;10.40;99.90;;;;;;4993380;28;20492;-61
2022/02/23 12:33:37;;;;;;;9.25;2.97;;;10.50;99.90;;;;;;4998228;28;20073;-60
2022/02/23 12:36:10;;;;;;;6.15;1.92;;;10.50;99.90;;;;;;4996352;28;20041;-61
2022/02/23 12:38:41;;;;;;;11.60;2.63;;;10.50;99.90;;;;;;5007441;28;20120;-61
2022/02/23 12:41:11;;;;;;;8.48;2.97;;;10.50;99.90;;;;;;5006522;28;20089;-61
2022/02/23 12:43:42;;;;;;;9.43;2.10;;;10.60;99.90;;;;;;4998982;28;20038;-59
2022/02/23 12:46:11;;;;;;;14.45;3.22;;;10.60;99.90;;;;;;5003959;28;20033;-59
2022/02/23 12:48:36;;;;;;;7.22;2.78;;;10.60;99.90;;;;;;5010753;28;20030;-60
2022/02/23 12:51:10;;;;;;;10.07;2.15;;;10.60;99.90;;;;;;5010704;28;20399;-60
2022/02/23 12:53:42;;;;;;;8.77;2.45;;;10.50;99.90;;;;;;5011197;28;20046;-59
2022/02/23 12:56:27;;;;;;;17.00;3.10;;;10.50;99.90;;;;;;5005624;28;20041;-59